UGSB/BUS METAR and TAF weather

Enter ICAO airport designator
Station Type Date Time Source
UGSB METAR 2020/01/26 19:00 UTC NOAA

UGSB 261900Z 13017KT CAVOK 04/M00 Q1028 NOSIG


Station Type Date Time Source
UGSB Decoded METAR 2020/01/26 19:00 UTC NOAA

Station name not available
Jan 26, 2020 - 02:00 PM EST / 2020.01.26 1900 UTC
Wind: from the SE (130 degrees) at 20 MPH (17 KT):0
Visibility: greater than 7 mile(s):0
Temperature: 39 F (4 C)
Dew Point: 32 F (0 C)
Relative Humidity: 75%
Pressure (altimeter): 30.36 in. Hg (1028 hPa)
ob: UGSB 261900Z 13017KT CAVOK 04/M00 Q1028 NOSIG
cycle: 19

Station Type Date Time Source
UGSB TAF 2020/01/26 18:01 UTC NOAA

TAF UGSB 261700Z 2618/2718 13017KT CAVOK TX12/2711Z TN03/2703Z
TEMPO 2620/2706 13027KT
BECMG 2710/2713 13007KT
BECMG 2716/2717 13017KT

Example: see airport list